sensor_id;sensor_type;location;lat;lon;timestamp;P1;durP1;ratioP1;P2;durP2;ratioP2
49582;SDS011;36329;48.816;44.624;2022-08-14T00:00:41;4.1;;;1.5;;
49582;SDS011;36329;48.816;44.624;2022-08-14T00:03:43;6.4;;;1.4;;
49582;SDS011;36329;48.816;44.624;2022-08-14T00:06:45;5.1;;;1.4;;
49582;SDS011;36329;48.816;44.624;2022-08-14T00:09:52;4.9;;;1.6;;
49582;SDS011;36329;48.816;44.624;2022-08-14T00:12:54;5.6;;;1.5;;
49582;SDS011;36329;48.816;44.624;2022-08-14T00:16:01;4.5;;;1.5;;
49582;SDS011;36329;48.816;44.624;2022-08-14T00:19:03;2.6;;;1.4;;
49582;SDS011;36329;48.816;44.624;2022-08-14T00:22:05;3;;;1.5;;
49582;SDS011;36329;48.816;44.624;2022-08-14T00:25:07;8.5;;;1.4;;
49582;SDS011;36329;48.816;44.624;2022-08-14T00:28:11;3.1;;;1.3;;
49582;SDS011;36329;48.816;44.624;2022-08-14T00:31:14;4.5;;;1.3;;
49582;SDS011;36329;48.816;44.624;2022-08-14T00:34:15;3.9;;;1.4;;
49582;SDS011;36329;48.816;44.624;2022-08-14T00:37:17;4.4;;;1.2;;
49582;SDS011;36329;48.816;44.624;2022-08-14T00:40:19;3.8;;;1.4;;
49582;SDS011;36329;48.816;44.624;2022-08-14T00:43:21;5.1;;;1.4;;
49582;SDS011;36329;48.816;44.624;2022-08-14T00:46:28;4.2;;;1.4;;
49582;SDS011;36329;48.816;44.624;2022-08-14T00:49:30;5.9;;;1.4;;
49582;SDS011;36329;48.816;44.624;2022-08-14T00:52:36;5;;;1.4;;
49582;SDS011;36329;48.816;44.624;2022-08-14T00:55:39;5.5;;;1.7;;
49582;SDS011;36329;48.816;44.624;2022-08-14T00:58:42;5.6;;;1.5;;
49582;SDS011;36329;48.816;44.624;2022-08-14T01:01:44;3.9;;;1.5;;
49582;SDS011;36329;48.816;44.624;2022-08-14T01:04:46;4;;;1.5;;
49582;SDS011;36329;48.816;44.624;2022-08-14T01:07:54;4.9;;;1.9;;
49582;SDS011;36329;48.816;44.624;2022-08-14T01:10:56;4.4;;;1.5;;
49582;SDS011;36329;48.816;44.624;2022-08-14T01:13:59;6.4;;;1.6;;
49582;SDS011;36329;48.816;44.624;2022-08-14T01:17:01;5.6;;;1.6;;
49582;SDS011;36329;48.816;44.624;2022-08-14T01:20:03;5.6;;;1.6;;
49582;SDS011;36329;48.816;44.624;2022-08-14T01:23:05;3.8;;;1.6;;
49582;SDS011;36329;48.816;44.624;2022-08-14T01:26:07;4.7;;;1.7;;
49582;SDS011;36329;48.816;44.624;2022-08-14T01:29:15;6.4;;;1.5;;
49582;SDS011;36329;48.816;44.624;2022-08-14T01:32:17;5.3;;;1.5;;
49582;SDS011;36329;48.816;44.624;2022-08-14T01:35:19;3.6;;;1.5;;
49582;SDS011;36329;48.816;44.624;2022-08-14T01:38:26;4.1;;;1.7;;
49582;SDS011;36329;48.816;44.624;2022-08-14T01:41:28;5.3;;;1.6;;
49582;SDS011;36329;48.816;44.624;2022-08-14T01:44:29;5.8;;;1.4;;
49582;SDS011;36329;48.816;44.624;2022-08-14T01:47:37;4.2;;;1.5;;
49582;SDS011;36329;48.816;44.624;2022-08-14T01:50:44;4.1;;;1.4;;
49582;SDS011;36329;48.816;44.624;2022-08-14T01:53:52;3.2;;;1.5;;
49582;SDS011;36329;48.816;44.624;2022-08-14T01:56:56;4.9;;;1.5;;
49582;SDS011;36329;48.816;44.624;2022-08-14T01:59:58;7.1;;;1.7;;
49582;SDS011;36329;48.816;44.624;2022-08-14T02:02:59;3.3;;;1.5;;
49582;SDS011;36329;48.816;44.624;2022-08-14T02:06:01;5.7;;;1.7;;
49582;SDS011;36329;48.816;44.624;2022-08-14T02:09:08;4.7;;;1.5;;
49582;SDS011;36329;48.816;44.624;2022-08-14T02:12:11;2.9;;;1.7;;
49582;SDS011;36329;48.816;44.624;2022-08-14T02:15:13;3.2;;;1.5;;
49582;SDS011;36329;48.816;44.624;2022-08-14T02:18:15;4.7;;;1.7;;
49582;SDS011;36329;48.816;44.624;2022-08-14T02:21:17;6.8;;;1.6;;
49582;SDS011;36329;48.816;44.624;2022-08-14T02:24:20;5.3;;;1.8;;
49582;SDS011;36329;48.816;44.624;2022-08-14T02:27:22;3.9;;;1.8;;
49582;SDS011;36329;48.816;44.624;2022-08-14T02:30:24;7.1;;;2;;
49582;SDS011;36329;48.816;44.624;2022-08-14T02:33:26;5.4;;;2;;
49582;SDS011;36329;48.816;44.624;2022-08-14T02:36:32;4.1;;;1.9;;
49582;SDS011;36329;48.816;44.624;2022-08-14T02:39:35;5.7;;;1.9;;
49582;SDS011;36329;48.816;44.624;2022-08-14T02:42:43;6.7;;;2;;
49582;SDS011;36329;48.816;44.624;2022-08-14T02:45:46;4.4;;;1.7;;
49582;SDS011;36329;48.816;44.624;2022-08-14T02:48:48;4.4;;;1.7;;
49582;SDS011;36329;48.816;44.624;2022-08-14T02:51:49;5.1;;;1.8;;
49582;SDS011;36329;48.816;44.624;2022-08-14T02:54:51;4.9;;;1.6;;
49582;SDS011;36329;48.816;44.624;2022-08-14T02:57:52;6.4;;;1.7;;
49582;SDS011;36329;48.816;44.624;2022-08-14T03:00:59;5.8;;;1.6;;
49582;SDS011;36329;48.816;44.624;2022-08-14T03:04:01;6.5;;;1.7;;
49582;SDS011;36329;48.816;44.624;2022-08-14T03:07:04;5.7;;;1.7;;
49582;SDS011;36329;48.816;44.624;2022-08-14T03:10:11;4.3;;;1.6;;
49582;SDS011;36329;48.816;44.624;2022-08-14T03:13:13;4.8;;;1.6;;
49582;SDS011;36329;48.816;44.624;2022-08-14T03:16:16;6.3;;;1.7;;
49582;SDS011;36329;48.816;44.624;2022-08-14T03:19:19;5.5;;;1.9;;
49582;SDS011;36329;48.816;44.624;2022-08-14T03:22:21;4.9;;;1.9;;
49582;SDS011;36329;48.816;44.624;2022-08-14T03:25:23;6.5;;;1.9;;
49582;SDS011;36329;48.816;44.624;2022-08-14T03:28:29;6.4;;;1.9;;
49582;SDS011;36329;48.816;44.624;2022-08-14T03:31:31;5.7;;;1.7;;
49582;SDS011;36329;48.816;44.624;2022-08-14T03:34:33;8;;;1.9;;
49582;SDS011;36329;48.816;44.624;2022-08-14T03:37:35;8.3;;;1.9;;
49582;SDS011;36329;48.816;44.624;2022-08-14T03:40:38;6.4;;;1.6;;
49582;SDS011;36329;48.816;44.624;2022-08-14T03:43:46;6.4;;;1.9;;
49582;SDS011;36329;48.816;44.624;2022-08-14T03:46:49;6.1;;;1.8;;
49582;SDS011;36329;48.816;44.624;2022-08-14T03:49:51;6.5;;;1.6;;
49582;SDS011;36329;48.816;44.624;2022-08-14T03:52:52;7;;;1.7;;
49582;SDS011;36329;48.816;44.624;2022-08-14T03:55:55;7.2;;;1.9;;
49582;SDS011;36329;48.816;44.624;2022-08-14T03:59:00;7.9;;;1.6;;
49582;SDS011;36329;48.816;44.624;2022-08-14T04:02:04;7.6;;;1.7;;
49582;SDS011;36329;48.816;44.624;2022-08-14T04:05:06;5.6;;;1.6;;
49582;SDS011;36329;48.816;44.624;2022-08-14T04:08:10;6.9;;;1.8;;
49582;SDS011;36329;48.816;44.624;2022-08-14T04:11:12;6;;;1.8;;
49582;SDS011;36329;48.816;44.624;2022-08-14T04:14:14;6.8;;;1.9;;
49582;SDS011;36329;48.816;44.624;2022-08-14T04:17:16;5.8;;;1.7;;
49582;SDS011;36329;48.816;44.624;2022-08-14T04:20:18;6;;;1.9;;
49582;SDS011;36329;48.816;44.624;2022-08-14T04:23:19;6;;;1.9;;
49582;SDS011;36329;48.816;44.624;2022-08-14T04:26:27;4.6;;;1.7;;
49582;SDS011;36329;48.816;44.624;2022-08-14T04:29:30;3.9;;;1.7;;
49582;SDS011;36329;48.816;44.624;2022-08-14T04:32:32;5.5;;;2;;
49582;SDS011;36329;48.816;44.624;2022-08-14T04:35:33;6.7;;;1.8;;
49582;SDS011;36329;48.816;44.624;2022-08-14T04:38:35;5.9;;;1.7;;
49582;SDS011;36329;48.816;44.624;2022-08-14T04:41:37;6;;;1.8;;
49582;SDS011;36329;48.816;44.624;2022-08-14T04:44:39;5.2;;;1.5;;
49582;SDS011;36329;48.816;44.624;2022-08-14T04:47:42;6.9;;;1.6;;
49582;SDS011;36329;48.816;44.624;2022-08-14T04:50:44;9.1;;;1.8;;
49582;SDS011;36329;48.816;44.624;2022-08-14T04:53:53;7.3;;;1.7;;
49582;SDS011;36329;48.816;44.624;2022-08-14T04:56:56;10.7;;;1.8;;
49582;SDS011;36329;48.816;44.624;2022-08-14T04:59:58;6.8;;;1.8;;
49582;SDS011;36329;48.816;44.624;2022-08-14T05:02:59;5.9;;;1.8;;
49582;SDS011;36329;48.816;44.624;2022-08-14T05:06:08;6.9;;;2;;
49582;SDS011;36329;48.816;44.624;2022-08-14T05:09:11;8.8;;;1.7;;
49582;SDS011;36329;48.816;44.624;2022-08-14T05:12:13;8.7;;;1.7;;
49582;SDS011;36329;48.816;44.624;2022-08-14T05:15:14;8.9;;;1.7;;
49582;SDS011;36329;48.816;44.624;2022-08-14T05:18:22;5.5;;;1.5;;
49582;SDS011;36329;48.816;44.624;2022-08-14T05:21:26;8.2;;;1.9;;
49582;SDS011;36329;48.816;44.624;2022-08-14T05:24:27;8.4;;;1.7;;
49582;SDS011;36329;48.816;44.624;2022-08-14T05:27:29;4.1;;;1.5;;
49582;SDS011;36329;48.816;44.624;2022-08-14T05:30:30;8;;;1.6;;
49582;SDS011;36329;48.816;44.624;2022-08-14T05:33:33;7.6;;;1.6;;
49582;SDS011;36329;48.816;44.624;2022-08-14T05:36:35;7.8;;;1.7;;
49582;SDS011;36329;48.816;44.624;2022-08-14T05:39:42;7.4;;;1.6;;
49582;SDS011;36329;48.816;44.624;2022-08-14T05:42:44;6.8;;;1.6;;
49582;SDS011;36329;48.816;44.624;2022-08-14T05:45:51;8.2;;;1.6;;
49582;SDS011;36329;48.816;44.624;2022-08-14T05:48:54;6.5;;;1.7;;
49582;SDS011;36329;48.816;44.624;2022-08-14T05:51:57;9.5;;;1.7;;
49582;SDS011;36329;48.816;44.624;2022-08-14T05:54:59;6.1;;;1.7;;
49582;SDS011;36329;48.816;44.624;2022-08-14T05:58:01;6.1;;;1.5;;
49582;SDS011;36329;48.816;44.624;2022-08-14T06:01:05;6.2;;;1.4;;
49582;SDS011;36329;48.816;44.624;2022-08-14T06:04:12;6.6;;;1.3;;
49582;SDS011;36329;48.816;44.624;2022-08-14T06:07:15;5.2;;;1.5;;
49582;SDS011;36329;48.816;44.624;2022-08-14T06:10:17;6.7;;;1.4;;
49582;SDS011;36329;48.816;44.624;2022-08-14T06:13:19;7.6;;;1.6;;
49582;SDS011;36329;48.816;44.624;2022-08-14T06:16:21;6.1;;;1.3;;
49582;SDS011;36329;48.816;44.624;2022-08-14T06:19:23;6.4;;;1.4;;
49582;SDS011;36329;48.816;44.624;2022-08-14T06:22:25;7.8;;;1.7;;
49582;SDS011;36329;48.816;44.624;2022-08-14T06:25:26;4.4;;;1.2;;
49582;SDS011;36329;48.816;44.624;2022-08-14T06:28:28;4.8;;;1.5;;
49582;SDS011;36329;48.816;44.624;2022-08-14T06:31:30;7.9;;;1.6;;
49582;SDS011;36329;48.816;44.624;2022-08-14T06:34:31;5.5;;;1.4;;
49582;SDS011;36329;48.816;44.624;2022-08-14T06:37:41;6.7;;;1.6;;
49582;SDS011;36329;48.816;44.624;2022-08-14T06:40:44;6.4;;;1.6;;
49582;SDS011;36329;48.816;44.624;2022-08-14T06:43:52;8.1;;;1.7;;
49582;SDS011;36329;48.816;44.624;2022-08-14T06:47:04;12.2;;;1.5;;
49582;SDS011;36329;48.816;44.624;2022-08-14T06:50:08;6;;;1.7;;
49582;SDS011;36329;48.816;44.624;2022-08-14T06:53:11;4.7;;;1.3;;
49582;SDS011;36329;48.816;44.624;2022-08-14T06:56:12;5;;;1.4;;
49582;SDS011;36329;48.816;44.624;2022-08-14T06:59:14;8.7;;;1.6;;
49582;SDS011;36329;48.816;44.624;2022-08-14T07:02:16;6.2;;;1.7;;
49582;SDS011;36329;48.816;44.624;2022-08-14T07:05:18;3.4;;;1.3;;
49582;SDS011;36329;48.816;44.624;2022-08-14T07:08:21;7.1;;;1.3;;
49582;SDS011;36329;48.816;44.624;2022-08-14T07:11:28;5.7;;;1.6;;
49582;SDS011;36329;48.816;44.624;2022-08-14T07:14:30;5;;;1.3;;
49582;SDS011;36329;48.816;44.624;2022-08-14T07:17:43;12.4;;;1.5;;
49582;SDS011;36329;48.816;44.624;2022-08-14T07:20:45;5.4;;;1.4;;
49582;SDS011;36329;48.816;44.624;2022-08-14T07:23:47;4;;;1.1;;
49582;SDS011;36329;48.816;44.624;2022-08-14T07:26:48;6;;;1.3;;
49582;SDS011;36329;48.816;44.624;2022-08-14T07:29:50;5.1;;;1.1;;
49582;SDS011;36329;48.816;44.624;2022-08-14T07:32:51;6.6;;;1.4;;
49582;SDS011;36329;48.816;44.624;2022-08-14T07:35:53;6;;;1.4;;
49582;SDS011;36329;48.816;44.624;2022-08-14T07:38:55;5.6;;;1.4;;
49582;SDS011;36329;48.816;44.624;2022-08-14T07:41:57;8.7;;;1.4;;
49582;SDS011;36329;48.816;44.624;2022-08-14T07:44:59;4;;;1.4;;
49582;SDS011;36329;48.816;44.624;2022-08-14T07:48:01;8.4;;;1.8;;
49582;SDS011;36329;48.816;44.624;2022-08-14T07:51:02;3.4;;;1.3;;
49582;SDS011;36329;48.816;44.624;2022-08-14T07:54:09;5.5;;;2.1;;
49582;SDS011;36329;48.816;44.624;2022-08-14T07:57:12;5.6;;;1.3;;
49582;SDS011;36329;48.816;44.624;2022-08-14T08:00:14;6.6;;;1.4;;
49582;SDS011;36329;48.816;44.624;2022-08-14T08:03:18;6.7;;;1.4;;
49582;SDS011;36329;48.816;44.624;2022-08-14T08:06:21;6;;;1.2;;
49582;SDS011;36329;48.816;44.624;2022-08-14T08:09:23;5.9;;;1.4;;
49582;SDS011;36329;48.816;44.624;2022-08-14T08:12:27;7.6;;;1.8;;
49582;SDS011;36329;48.816;44.624;2022-08-14T08:15:29;5.6;;;1.8;;
49582;SDS011;36329;48.816;44.624;2022-08-14T08:18:42;6.3;;;1.4;;
49582;SDS011;36329;48.816;44.624;2022-08-14T08:21:44;5.2;;;1.3;;
49582;SDS011;36329;48.816;44.624;2022-08-14T08:24:45;5.2;;;1.4;;
49582;SDS011;36329;48.816;44.624;2022-08-14T08:27:54;4.4;;;1.5;;
49582;SDS011;36329;48.816;44.624;2022-08-14T08:30:58;6.3;;;1.6;;
49582;SDS011;36329;48.816;44.624;2022-08-14T08:34:03;8;;;1.6;;
49582;SDS011;36329;48.816;44.624;2022-08-14T08:37:05;3.3;;;1.2;;
49582;SDS011;36329;48.816;44.624;2022-08-14T08:40:07;7.5;;;1.4;;
49582;SDS011;36329;48.816;44.624;2022-08-14T08:43:16;3.2;;;1.3;;
49582;SDS011;36329;48.816;44.624;2022-08-14T08:46:20;5.2;;;1.2;;
49582;SDS011;36329;48.816;44.624;2022-08-14T08:49:21;4.8;;;1.2;;
49582;SDS011;36329;48.816;44.624;2022-08-14T08:52:23;9.3;;;1.5;;
49582;SDS011;36329;48.816;44.624;2022-08-14T08:55:26;4.2;;;1.2;;
49582;SDS011;36329;48.816;44.624;2022-08-14T08:58:28;2.5;;;1.3;;
49582;SDS011;36329;48.816;44.624;2022-08-14T09:01:36;4.6;;;1.4;;
49582;SDS011;36329;48.816;44.624;2022-08-14T09:04:43;5;;;1.6;;
49582;SDS011;36329;48.816;44.624;2022-08-14T09:07:50;4.3;;;1.3;;
49582;SDS011;36329;48.816;44.624;2022-08-14T09:10:53;5.8;;;1.3;;
49582;SDS011;36329;48.816;44.624;2022-08-14T09:13:56;7.1;;;1.4;;
49582;SDS011;36329;48.816;44.624;2022-08-14T09:16:58;4.1;;;1.1;;
49582;SDS011;36329;48.816;44.624;2022-08-14T09:20:00;3.2;;;1.2;;
49582;SDS011;36329;48.816;44.624;2022-08-14T09:23:02;6.5;;;1.4;;
49582;SDS011;36329;48.816;44.624;2022-08-14T09:26:04;5.6;;;1.3;;
49582;SDS011;36329;48.816;44.624;2022-08-14T09:29:06;4.5;;;1.4;;
49582;SDS011;36329;48.816;44.624;2022-08-14T09:32:08;3.8;;;1.5;;
49582;SDS011;36329;48.816;44.624;2022-08-14T09:35:19;5.3;;;1.5;;
49582;SDS011;36329;48.816;44.624;2022-08-14T09:38:37;3.3;;;1.5;;
49582;SDS011;36329;48.816;44.624;2022-08-14T09:41:59;3.5;;;1.3;;
49582;SDS011;36329;48.816;44.624;2022-08-14T09:45:14;5.6;;;1.5;;
49582;SDS011;36329;48.816;44.624;2022-08-14T09:48:23;6.4;;;1.7;;
49582;SDS011;36329;48.816;44.624;2022-08-14T09:51:26;5.6;;;1.5;;
49582;SDS011;36329;48.816;44.624;2022-08-14T09:54:34;4.2;;;1.4;;
49582;SDS011;36329;48.816;44.624;2022-08-14T09:57:37;4.5;;;1.6;;
49582;SDS011;36329;48.816;44.624;2022-08-14T10:00:44;3.9;;;1.5;;
49582;SDS011;36329;48.816;44.624;2022-08-14T10:03:48;4.8;;;2;;
49582;SDS011;36329;48.816;44.624;2022-08-14T10:06:51;4.7;;;2.5;;
49582;SDS011;36329;48.816;44.624;2022-08-14T10:09:54;5.3;;;1.8;;
49582;SDS011;36329;48.816;44.624;2022-08-14T10:12:56;6.6;;;1.6;;
49582;SDS011;36329;48.816;44.624;2022-08-14T10:15:59;4;;;1.4;;
49582;SDS011;36329;48.816;44.624;2022-08-14T10:19:02;3.5;;;1.4;;
49582;SDS011;36329;48.816;44.624;2022-08-14T10:22:05;5.7;;;1.5;;
49582;SDS011;36329;48.816;44.624;2022-08-14T10:25:10;6.3;;;1.5;;
49582;SDS011;36329;48.816;44.624;2022-08-14T10:28:19;3.6;;;1.4;;
49582;SDS011;36329;48.816;44.624;2022-08-14T10:31:23;6.7;;;1.6;;
49582;SDS011;36329;48.816;44.624;2022-08-14T10:34:38;3.2;;;1.5;;
49582;SDS011;36329;48.816;44.624;2022-08-14T10:37:51;4.6;;;1.4;;
49582;SDS011;36329;48.816;44.624;2022-08-14T10:40:54;5.4;;;1.3;;
49582;SDS011;36329;48.816;44.624;2022-08-14T10:44:04;3.9;;;1.4;;
49582;SDS011;36329;48.816;44.624;2022-08-14T10:47:13;7.1;;;1.6;;
49582;SDS011;36329;48.816;44.624;2022-08-14T10:50:16;5.1;;;1.6;;
49582;SDS011;36329;48.816;44.624;2022-08-14T10:53:34;5.1;;;1.6;;
49582;SDS011;36329;48.816;44.624;2022-08-14T10:56:38;5.8;;;1.4;;
49582;SDS011;36329;48.816;44.624;2022-08-14T10:59:41;5.6;;;1.4;;
49582;SDS011;36329;48.816;44.624;2022-08-14T11:02:43;3.2;;;1.3;;
49582;SDS011;36329;48.816;44.624;2022-08-14T11:05:51;6.7;;;1.7;;
49582;SDS011;36329;48.816;44.624;2022-08-14T11:08:53;3.9;;;1.5;;
49582;SDS011;36329;48.816;44.624;2022-08-14T11:11:55;4.4;;;1.3;;
49582;SDS011;36329;48.816;44.624;2022-08-14T11:14:57;9;;;1.5;;
49582;SDS011;36329;48.816;44.624;2022-08-14T11:17:59;5.7;;;1.5;;
49582;SDS011;36329;48.816;44.624;2022-08-14T11:21:01;8;;;1.8;;
49582;SDS011;36329;48.816;44.624;2022-08-14T11:24:05;4.3;;;1.7;;
49582;SDS011;36329;48.816;44.624;2022-08-14T11:27:09;8.1;;;1.7;;
49582;SDS011;36329;48.816;44.624;2022-08-14T11:30:16;6.4;;;1.5;;
49582;SDS011;36329;48.816;44.624;2022-08-14T11:33:20;4.9;;;1.8;;
49582;SDS011;36329;48.816;44.624;2022-08-14T11:36:23;5.6;;;1.5;;
49582;SDS011;36329;48.816;44.624;2022-08-14T11:39:26;7.4;;;1.8;;
49582;SDS011;36329;48.816;44.624;2022-08-14T11:42:33;4.4;;;1.6;;
49582;SDS011;36329;48.816;44.624;2022-08-14T11:45:35;3.8;;;1.6;;
49582;SDS011;36329;48.816;44.624;2022-08-14T11:48:44;6;;;1.5;;
49582;SDS011;36329;48.816;44.624;2022-08-14T11:51:51;5;;;1.6;;
49582;SDS011;36329;48.816;44.624;2022-08-14T11:54:55;4.7;;;1.7;;
49582;SDS011;36329;48.816;44.624;2022-08-14T11:57:58;6.5;;;1.6;;
49582;SDS011;36329;48.816;44.624;2022-08-14T12:01:06;6.6;;;1.7;;
49582;SDS011;36329;48.816;44.624;2022-08-14T12:04:10;5;;;1.7;;
49582;SDS011;36329;48.816;44.624;2022-08-14T12:07:12;6.5;;;1.8;;
49582;SDS011;36329;48.816;44.624;2022-08-14T12:10:16;7.1;;;1.8;;
49582;SDS011;36329;48.816;44.624;2022-08-14T12:13:19;6.4;;;2;;
49582;SDS011;36329;48.816;44.624;2022-08-14T12:16:21;5.6;;;1.9;;
49582;SDS011;36329;48.816;44.624;2022-08-14T12:19:22;6.6;;;1.8;;
49582;SDS011;36329;48.816;44.624;2022-08-14T12:22:32;6.1;;;2.1;;
49582;SDS011;36329;48.816;44.624;2022-08-14T12:25:40;11.6;;;2;;
49582;SDS011;36329;48.816;44.624;2022-08-14T12:28:42;7;;;1.9;;
49582;SDS011;36329;48.816;44.624;2022-08-14T12:31:44;4.4;;;1.7;;
49582;SDS011;36329;48.816;44.624;2022-08-14T12:34:51;5.3;;;1.8;;
49582;SDS011;36329;48.816;44.624;2022-08-14T12:37:54;6;;;1.9;;
49582;SDS011;36329;48.816;44.624;2022-08-14T12:40:56;6.9;;;2;;
49582;SDS011;36329;48.816;44.624;2022-08-14T12:43:58;7.3;;;2;;
49582;SDS011;36329;48.816;44.624;2022-08-14T12:47:03;3.9;;;1.8;;
49582;SDS011;36329;48.816;44.624;2022-08-14T12:50:22;5.5;;;1.7;;
49582;SDS011;36329;48.816;44.624;2022-08-14T12:53:40;6.5;;;1.7;;
49582;SDS011;36329;48.816;44.624;2022-08-14T12:56:43;3.6;;;1.5;;
49582;SDS011;36329;48.816;44.624;2022-08-14T12:59:45;7.6;;;1.9;;
49582;SDS011;36329;48.816;44.624;2022-08-14T13:02:48;5.1;;;1.9;;
49582;SDS011;36329;48.816;44.624;2022-08-14T13:05:51;4.8;;;1.8;;
49582;SDS011;36329;48.816;44.624;2022-08-14T13:08:53;6.2;;;1.9;;
49582;SDS011;36329;48.816;44.624;2022-08-14T13:11:55;5;;;1.6;;
49582;SDS011;36329;48.816;44.624;2022-08-14T13:15:04;5.7;;;2.1;;
49582;SDS011;36329;48.816;44.624;2022-08-14T13:18:07;6.4;;;1.9;;
49582;SDS011;36329;48.816;44.624;2022-08-14T13:21:10;9.8;;;2;;
49582;SDS011;36329;48.816;44.624;2022-08-14T13:24:13;5.3;;;2.1;;
49582;SDS011;36329;48.816;44.624;2022-08-14T13:27:15;5.8;;;1.9;;
49582;SDS011;36329;48.816;44.624;2022-08-14T13:30:17;6.9;;;1.9;;
49582;SDS011;36329;48.816;44.624;2022-08-14T13:33:19;10;;;2.1;;
49582;SDS011;36329;48.816;44.624;2022-08-14T13:36:23;6.9;;;2;;
49582;SDS011;36329;48.816;44.624;2022-08-14T13:39:26;5.8;;;1.8;;
49582;SDS011;36329;48.816;44.624;2022-08-14T13:42:34;6.1;;;1.9;;
49582;SDS011;36329;48.816;44.624;2022-08-14T13:45:35;4.7;;;2;;
49582;SDS011;36329;48.816;44.624;2022-08-14T13:48:37;4;;;1.9;;
49582;SDS011;36329;48.816;44.624;2022-08-14T13:51:39;3.6;;;1.7;;
49582;SDS011;36329;48.816;44.624;2022-08-14T13:54:44;4.7;;;1.9;;
49582;SDS011;36329;48.816;44.624;2022-08-14T13:57:46;4.8;;;2;;
49582;SDS011;36329;48.816;44.624;2022-08-14T14:00:49;5.7;;;1.9;;
49582;SDS011;36329;48.816;44.624;2022-08-14T14:03:57;5.1;;;2;;
49582;SDS011;36329;48.816;44.624;2022-08-14T14:07:00;5.4;;;2.2;;
49582;SDS011;36329;48.816;44.624;2022-08-14T14:10:05;5.6;;;2.3;;
49582;SDS011;36329;48.816;44.624;2022-08-14T14:13:08;8.8;;;2.3;;
49582;SDS011;36329;48.816;44.624;2022-08-14T14:16:10;8.6;;;2.2;;
49582;SDS011;36329;48.816;44.624;2022-08-14T14:19:13;5.6;;;2.3;;
49582;SDS011;36329;48.816;44.624;2022-08-14T14:22:18;7.8;;;2.6;;
49582;SDS011;36329;48.816;44.624;2022-08-14T14:25:20;7.9;;;2.3;;
49582;SDS011;36329;48.816;44.624;2022-08-14T14:28:21;6;;;2.6;;
49582;SDS011;36329;48.816;44.624;2022-08-14T14:31:29;8.7;;;2.4;;
49582;SDS011;36329;48.816;44.624;2022-08-14T14:34:41;7.6;;;2.5;;
49582;SDS011;36329;48.816;44.624;2022-08-14T14:37:44;6.5;;;2.8;;
49582;SDS011;36329;48.816;44.624;2022-08-14T14:40:46;4.8;;;2.9;;
49582;SDS011;36329;48.816;44.624;2022-08-14T14:43:56;7;;;3.2;;
49582;SDS011;36329;48.816;44.624;2022-08-14T14:47:00;6.8;;;3.1;;
49582;SDS011;36329;48.816;44.624;2022-08-14T14:50:02;6.3;;;2.7;;
49582;SDS011;36329;48.816;44.624;2022-08-14T14:53:04;5.9;;;2.8;;
49582;SDS011;36329;48.816;44.624;2022-08-14T14:56:06;6.3;;;2.8;;
49582;SDS011;36329;48.816;44.624;2022-08-14T14:59:18;4.7;;;2.7;;
49582;SDS011;36329;48.816;44.624;2022-08-14T15:02:24;8.8;;;2.9;;
49582;SDS011;36329;48.816;44.624;2022-08-14T15:05:30;9.5;;;3.1;;
49582;SDS011;36329;48.816;44.624;2022-08-14T15:08:31;5.6;;;2.4;;
49582;SDS011;36329;48.816;44.624;2022-08-14T15:11:33;7.1;;;2.5;;
49582;SDS011;36329;48.816;44.624;2022-08-14T15:14:34;8.4;;;2.6;;
49582;SDS011;36329;48.816;44.624;2022-08-14T15:17:36;7.7;;;2.6;;
49582;SDS011;36329;48.816;44.624;2022-08-14T15:20:38;7.7;;;2.6;;
49582;SDS011;36329;48.816;44.624;2022-08-14T15:23:41;6.1;;;2.6;;
49582;SDS011;36329;48.816;44.624;2022-08-14T15:26:42;6.8;;;2.5;;
49582;SDS011;36329;48.816;44.624;2022-08-14T15:29:44;8;;;2.6;;
49582;SDS011;36329;48.816;44.624;2022-08-14T15:32:50;9.9;;;2.8;;
49582;SDS011;36329;48.816;44.624;2022-08-14T15:35:53;8.2;;;3.3;;
49582;SDS011;36329;48.816;44.624;2022-08-14T15:38:55;7.2;;;3.1;;
49582;SDS011;36329;48.816;44.624;2022-08-14T15:41:58;6.8;;;2.8;;
49582;SDS011;36329;48.816;44.624;2022-08-14T15:45:00;11.1;;;3.6;;
49582;SDS011;36329;48.816;44.624;2022-08-14T15:48:07;8.8;;;4;;
49582;SDS011;36329;48.816;44.624;2022-08-14T15:51:10;6.7;;;3.8;;
49582;SDS011;36329;48.816;44.624;2022-08-14T15:54:17;7.4;;;3;;
49582;SDS011;36329;48.816;44.624;2022-08-14T15:57:19;8.6;;;2.9;;
49582;SDS011;36329;48.816;44.624;2022-08-14T16:00:21;7.5;;;3;;
49582;SDS011;36329;48.816;44.624;2022-08-14T16:03:23;8.4;;;2.8;;
49582;SDS011;36329;48.816;44.624;2022-08-14T16:06:26;6.6;;;2.8;;
49582;SDS011;36329;48.816;44.624;2022-08-14T16:09:28;6.6;;;2.7;;
49582;SDS011;36329;48.816;44.624;2022-08-14T16:12:30;6.6;;;2.7;;
49582;SDS011;36329;48.816;44.624;2022-08-14T16:15:32;8.5;;;2.9;;
49582;SDS011;36329;48.816;44.624;2022-08-14T16:18:34;9;;;3.1;;
49582;SDS011;36329;48.816;44.624;2022-08-14T16:21:38;9.6;;;3;;
49582;SDS011;36329;48.816;44.624;2022-08-14T16:24:41;6.9;;;2.7;;
49582;SDS011;36329;48.816;44.624;2022-08-14T16:27:49;7.3;;;2.9;;
49582;SDS011;36329;48.816;44.624;2022-08-14T16:30:51;7.8;;;3.5;;
49582;SDS011;36329;48.816;44.624;2022-08-14T16:33:53;10.1;;;4.5;;
49582;SDS011;36329;48.816;44.624;2022-08-14T16:36:55;11.3;;;4.6;;
49582;SDS011;36329;48.816;44.624;2022-08-14T16:39:57;11.5;;;7;;
49582;SDS011;36329;48.816;44.624;2022-08-14T16:43:01;8.5;;;3.4;;
49582;SDS011;36329;48.816;44.624;2022-08-14T16:46:02;11.1;;;3.2;;
49582;SDS011;36329;48.816;44.624;2022-08-14T16:49:05;10.9;;;3.4;;
49582;SDS011;36329;48.816;44.624;2022-08-14T16:52:09;8.2;;;3.6;;
49582;SDS011;36329;48.816;44.624;2022-08-14T16:55:12;8.5;;;3.4;;
49582;SDS011;36329;48.816;44.624;2022-08-14T16:58:14;11.8;;;4.1;;
49582;SDS011;36329;48.816;44.624;2022-08-14T17:01:22;9.8;;;3.4;;
49582;SDS011;36329;48.816;44.624;2022-08-14T17:04:25;6.7;;;2.7;;
49582;SDS011;36329;48.816;44.624;2022-08-14T17:07:33;10.5;;;3.1;;
49582;SDS011;36329;48.816;44.624;2022-08-14T17:14:05;10.1;;;3.1;;
49582;SDS011;36329;48.816;44.624;2022-08-14T17:17:07;5.7;;;2.7;;
49582;SDS011;36329;48.816;44.624;2022-08-14T17:20:09;8.4;;;2.6;;
49582;SDS011;36329;48.816;44.624;2022-08-14T17:23:12;9.6;;;2.8;;
49582;SDS011;36329;48.816;44.624;2022-08-14T17:29:45;9.2;;;2.8;;
49582;SDS011;36329;48.816;44.624;2022-08-14T17:32:47;8.4;;;2.6;;
49582;SDS011;36329;48.816;44.624;2022-08-14T17:39:14;8.2;;;2.5;;
49582;SDS011;36329;48.816;44.624;2022-08-14T17:42:17;6.7;;;2.1;;
49582;SDS011;36329;48.816;44.624;2022-08-14T17:45:20;5.9;;;2.1;;
49582;SDS011;36329;48.816;44.624;2022-08-14T17:48:24;7.1;;;2.2;;
49582;SDS011;36329;48.816;44.624;2022-08-14T17:51:26;8.2;;;2.4;;
49582;SDS011;36329;48.816;44.624;2022-08-14T17:54:34;6.4;;;2;;
49582;SDS011;36329;48.816;44.624;2022-08-14T17:57:43;7.7;;;2.1;;
49582;SDS011;36329;48.816;44.624;2022-08-14T18:00:45;6.2;;;1.9;;
49582;SDS011;36329;48.816;44.624;2022-08-14T18:03:48;12.8;;;2.1;;
49582;SDS011;36329;48.816;44.624;2022-08-14T18:06:53;7.2;;;2;;
49582;SDS011;36329;48.816;44.624;2022-08-14T18:10:01;6.5;;;2;;
49582;SDS011;36329;48.816;44.624;2022-08-14T18:13:04;7.9;;;2.1;;
49582;SDS011;36329;48.816;44.624;2022-08-14T18:16:13;6.8;;;1.9;;
49582;SDS011;36329;48.816;44.624;2022-08-14T18:19:21;10.1;;;2.2;;
49582;SDS011;36329;48.816;44.624;2022-08-14T18:22:24;7.8;;;2.5;;
49582;SDS011;36329;48.816;44.624;2022-08-14T18:25:25;7.6;;;2.3;;
49582;SDS011;36329;48.816;44.624;2022-08-14T18:28:30;7.1;;;2.2;;
49582;SDS011;36329;48.816;44.624;2022-08-14T18:31:35;7.7;;;2.1;;
49582;SDS011;36329;48.816;44.624;2022-08-14T18:34:36;7.6;;;2.5;;
49582;SDS011;36329;48.816;44.624;2022-08-14T18:37:38;13;;;2.2;;
49582;SDS011;36329;48.816;44.624;2022-08-14T18:40:41;9.6;;;2.4;;
49582;SDS011;36329;48.816;44.624;2022-08-14T18:43:43;10.6;;;2.6;;
49582;SDS011;36329;48.816;44.624;2022-08-14T18:50:21;8.6;;;2.1;;
49582;SDS011;36329;48.816;44.624;2022-08-14T18:53:24;7.7;;;2.4;;
49582;SDS011;36329;48.816;44.624;2022-08-14T19:00:05;5;;;2.3;;
49582;SDS011;36329;48.816;44.624;2022-08-14T19:06:51;9.6;;;2.2;;
49582;SDS011;36329;48.816;44.624;2022-08-14T19:09:54;10.7;;;2.4;;